Time;durP1;ratioP1;P1;durP2;ratioP2;P2;SDS_P1;SDS_P2;PMS_P1;PMS_P2;Temp;Humidity;BMP_temperature;BMP_pressure;BME280_temperature;BME280_humidity;BME280_pressure;Samples;Min_cycle;Max_cycle;Signal;HPM_P1;HPM_P2
2022/12/05 00:00:20;;;;;;;28.40;21.25;;;10.70;15.50;;;;;;5032592;28;20395;-68
2022/12/05 00:02:45;;;;;;;33.97;24.10;;;10.60;15.20;;;;;;5025998;28;20017;-68
2022/12/05 00:05:11;;;;;;;30.65;23.65;;;10.70;14.90;;;;;;5013480;28;20021;-68
2022/12/05 00:14:52;;;;;;;27.88;21.83;;;10.70;13.50;;;;;;5011825;28;20041;-68
2022/12/05 00:17:17;;;;;;;29.40;20.88;;;10.70;14.10;;;;;;4996188;28;20044;-68
2022/12/05 00:19:43;;;;;;;30.45;21.58;;;10.70;14.80;;;;;;5022257;28;20525;-68
2022/12/05 00:22:08;;;;;;;29.30;20.25;;;10.70;14.00;;;;;;5032430;28;20060;-68
2022/12/05 00:24:34;;;;;;;25.83;20.15;;;10.70;14.30;;;;;;5032386;28;20026;-68
2022/12/05 00:26:59;;;;;;;24.95;19.27;;;10.60;14.60;;;;;;5032482;28;20452;-68
2022/12/05 00:29:25;;;;;;;24.92;19.15;;;10.70;13.80;;;;;;5032214;28;20042;-68
2022/12/05 00:31:51;;;;;;;28.75;20.83;;;10.80;13.90;;;;;;5032131;28;20387;-68
2022/12/05 00:34:16;;;;;;;25.33;18.83;;;10.70;13.80;;;;;;5026639;28;20033;-68
2022/12/05 00:37:00;;;;;;;24.65;20.00;;;10.80;14.00;;;;;;5028907;28;20550;-68
2022/12/05 00:39:25;;;;;;;24.63;18.17;;;10.70;13.20;;;;;;5032097;28;20095;-68
2022/12/05 00:41:51;;;;;;;27.17;19.30;;;10.70;14.20;;;;;;5032194;28;20030;-68
2022/12/05 00:44:17;;;;;;;24.23;18.73;;;10.80;13.90;;;;;;5029022;28;20021;-68
2022/12/05 00:46:43;;;;;;;27.02;19.33;;;10.90;13.30;;;;;;5027054;28;20479;-68
2022/12/05 00:49:10;;;;;;;23.63;18.15;;;10.90;13.30;;;;;;5030335;28;20033;-68
2022/12/05 00:51:40;;;;;;;27.92;19.65;;;10.80;13.40;;;;;;5031831;28;20048;-68
2022/12/05 00:54:13;;;;;;;25.85;19.75;;;10.90;13.20;;;;;;5031342;28;20072;-68
2022/12/05 00:56:39;;;;;;;27.77;20.23;;;10.80;13.60;;;;;;5026112;28;20504;-69
2022/12/05 00:59:06;;;;;;;24.88;19.63;;;10.70;14.10;;;;;;5031599;28;20403;-69
2022/12/05 01:01:38;;;;;;;27.17;20.23;;;10.80;13.20;;;;;;5031690;28;20075;-69
2022/12/05 01:04:09;;;;;;;24.20;18.55;;;10.80;12.40;;;;;;5031427;28;20540;-69
2022/12/05 01:06:34;;;;;;;24.90;18.88;;;10.80;13.60;;;;;;5012947;28;20028;-69
2022/12/05 01:09:00;;;;;;;23.27;18.25;;;10.80;13.60;;;;;;5022283;28;20384;-68
2022/12/05 01:11:27;;;;;;;21.13;17.35;;;10.90;12.90;;;;;;5012148;28;20036;-69
2022/12/05 01:13:53;;;;;;;23.33;18.77;;;11.00;12.70;;;;;;5015496;28;20025;-69
2022/12/05 01:16:25;;;;;;;22.02;17.38;;;11.00;12.50;;;;;;5022088;28;20038;-69
2022/12/05 01:18:50;;;;;;;20.58;16.58;;;10.80;12.60;;;;;;5010605;28;20030;-69
2022/12/05 01:21:16;;;;;;;22.02;17.58;;;10.90;12.90;;;;;;5036403;28;20109;-68
2022/12/05 01:23:42;;;;;;;22.73;17.70;;;11.00;12.40;;;;;;5036608;28;20017;-69
2022/12/05 01:26:11;;;;;;;20.25;15.63;;;10.80;12.90;;;;;;5033603;28;20129;-69
2022/12/05 01:28:38;;;;;;;20.50;16.38;;;10.80;12.90;;;;;;5027896;28;20075;-69
2022/12/05 01:31:16;;;;;;;21.13;16.70;;;11.10;12.20;;;;;;5037893;28;20116;-68
2022/12/05 01:33:42;;;;;;;18.98;14.93;;;11.10;10.30;;;;;;5038054;28;20100;-68
2022/12/05 01:36:10;;;;;;;22.13;17.52;;;11.10;11.90;;;;;;5038058;28;20108;-68
2022/12/05 01:38:37;;;;;;;21.88;16.83;;;11.00;11.90;;;;;;5038173;28;20348;-68
2022/12/05 01:41:04;;;;;;;20.50;16.33;;;11.20;11.60;;;;;;5030587;28;20022;-69
2022/12/05 01:43:30;;;;;;;20.52;16.95;;;11.10;11.30;;;;;;5032088;28;20105;-69
2022/12/05 01:45:56;;;;;;;20.20;15.48;;;11.00;12.00;;;;;;5030161;28;20104;-69
2022/12/05 01:48:26;;;;;;;18.42;14.98;;;11.10;11.30;;;;;;5037695;28;20483;-69
2022/12/05 01:50:53;;;;;;;21.15;17.13;;;11.20;10.90;;;;;;5038101;28;20029;-68
2022/12/05 01:53:19;;;;;;;18.45;14.85;;;11.20;11.00;;;;;;5037528;28;20045;-69
2022/12/05 01:55:47;;;;;;;16.17;13.52;;;11.00;8.60;;;;;;5032319;28;20480;-69
2022/12/05 01:58:14;;;;;;;19.27;15.45;;;11.10;10.80;;;;;;5032952;28;20091;-68
2022/12/05 02:00:40;;;;;;;20.17;15.55;;;11.10;11.60;;;;;;5037626;28;20530;-68
2022/12/05 02:03:08;;;;;;;19.60;15.65;;;11.00;12.00;;;;;;5037737;28;20064;-68
2022/12/05 02:05:36;;;;;;;21.63;16.45;;;11.10;11.30;;;;;;5037735;28;20096;-68
2022/12/05 02:08:05;;;;;;;20.38;16.15;;;11.10;11.20;;;;;;5037162;28;20485;-68
2022/12/05 02:10:45;;;;;;;21.08;16.10;;;11.10;11.10;;;;;;5034970;28;20044;-68
2022/12/05 02:13:34;;;;;;;22.17;16.55;;;11.20;10.60;;;;;;5035081;28;20077;-68
2022/12/05 02:16:40;;;;;;;21.80;15.93;;;11.20;10.60;;;;;;5035768;28;20445;-68
2022/12/05 02:19:24;;;;;;;20.98;16.45;;;11.10;10.10;;;;;;5019155;28;20020;-68
2022/12/05 02:22:20;;;;;;;22.35;16.40;;;11.30;10.70;;;;;;5035869;28;20470;-69
2022/12/05 02:24:54;;;;;;;21.40;15.75;;;11.30;9.90;;;;;;5005088;28;20092;-68
2022/12/05 02:27:45;;;;;;;20.70;16.50;;;11.20;10.80;;;;;;5028510;28;20029;-68
2022/12/05 02:30:11;;;;;;;22.45;16.80;;;11.30;11.20;;;;;;5015030;28;20484;-68
2022/12/05 02:33:24;;;;;;;21.08;18.00;;;11.10;10.90;;;;;;5014645;28;20029;-68
2022/12/05 02:35:53;;;;;;;26.08;19.08;;;11.20;10.10;;;;;;5001215;28;20073;-68
2022/12/05 02:38:40;;;;;;;18.92;15.40;;;11.10;12.00;;;;;;5014359;28;20379;-68
2022/12/05 02:41:35;;;;;;;22.63;17.83;;;11.10;12.40;;;;;;5014680;28;20391;-68
2022/12/05 02:44:12;;;;;;;22.93;17.33;;;11.10;13.90;;;;;;5008249;28;20045;-68
2022/12/05 02:46:40;;;;;;;23.73;18.38;;;11.10;13.60;;;;;;5026025;28;20030;-68
2022/12/05 02:49:11;;;;;;;24.65;18.67;;;11.00;11.80;;;;;;5020378;28;20024;-68
2022/12/05 02:51:42;;;;;;;25.55;18.05;;;11.00;11.80;;;;;;5026776;28;20088;-68
2022/12/05 02:54:12;;;;;;;21.80;17.08;;;11.00;10.20;;;;;;5029847;28;20049;-68
2022/12/05 02:56:39;;;;;;;21.17;16.95;;;11.10;10.80;;;;;;5024384;28;20546;-68
2022/12/05 02:59:05;;;;;;;20.40;16.33;;;11.10;11.70;;;;;;5033756;28;20037;-68
2022/12/05 03:01:31;;;;;;;22.17;16.52;;;11.00;16.30;;;;;;5033709;28;20024;-68
2022/12/05 03:04:00;;;;;;;21.38;15.88;;;11.00;12.80;;;;;;5033638;28;20040;-68
2022/12/05 03:06:40;;;;;;;18.45;16.00;;;10.80;13.60;;;;;;5025959;28;20018;-68
2022/12/05 03:09:18;;;;;;;22.45;16.98;;;10.90;13.70;;;;;;5030080;28;20083;-68
2022/12/05 03:11:49;;;;;;;19.92;16.63;;;10.80;17.50;;;;;;5032268;28;20372;-68
2022/12/05 03:14:22;;;;;;;19.85;16.10;;;10.90;14.90;;;;;;5033417;28;20040;-68
2022/12/05 03:16:51;;;;;;;21.05;16.40;;;10.90;14.40;;;;;;5033546;28;20013;-68
2022/12/05 03:19:23;;;;;;;19.17;15.45;;;10.90;14.20;;;;;;5033144;28;20028;-68
2022/12/05 03:21:59;;;;;;;22.10;17.13;;;10.90;14.70;;;;;;5022672;28;20109;-67
2022/12/05 03:24:25;;;;;;;18.90;15.35;;;10.90;9.80;;;;;;5033308;28;20079;-67
2022/12/05 03:27:19;;;;;;;18.90;15.07;;;11.00;13.40;;;;;;5033216;28;20033;-67
2022/12/05 03:29:54;;;;;;;18.25;16.00;;;10.90;13.80;;;;;;5032662;28;20103;-67
2022/12/05 03:32:23;;;;;;;21.73;16.48;;;10.90;17.70;;;;;;5015662;28;20033;-67
2022/12/05 03:35:01;;;;;;;20.20;16.67;;;10.90;14.10;;;;;;5032971;28;20455;-67
2022/12/05 03:37:37;;;;;;;21.50;17.75;;;10.90;16.50;;;;;;5033033;28;20029;-67
2022/12/05 03:40:16;;;;;;;19.42;15.88;;;10.80;15.80;;;;;;5029090;28;20065;-67
2022/12/05 03:43:07;;;;;;;21.30;16.45;;;10.80;15.70;;;;;;5025485;28;20087;-67
2022/12/05 03:46:02;;;;;;;20.88;17.05;;;10.90;15.20;;;;;;5002640;28;20049;-67
2022/12/05 03:48:54;;;;;;;18.10;14.90;;;10.90;73.60;;;;;;5030151;28;20018;-67
2022/12/05 03:51:24;;;;;;;17.80;15.00;;;10.70;99.90;;;;;;5032817;28;20029;-67
2022/12/05 03:54:05;;;;;;;19.55;15.70;;;10.80;94.30;;;;;;5031234;28;20407;-67
2022/12/05 03:56:36;;;;;;;17.20;14.02;;;10.60;71.00;;;;;;5032743;28;20087;-67
2022/12/05 03:59:17;;;;;;;17.10;13.75;;;10.50;99.10;;;;;;5032562;28;20148;-67
2022/12/05 04:01:45;;;;;;;17.48;14.23;;;10.30;91.30;;;;;;5027199;28;20092;-67
2022/12/05 04:04:21;;;;;;;18.52;14.95;;;10.40;54.30;;;;;;5032641;28;20029;-67
2022/12/05 04:06:50;;;;;;;18.10;14.65;;;10.60;39.10;;;;;;5032708;28;20030;-67
2022/12/05 04:09:34;;;;;;;14.43;12.93;;;10.70;30.60;;;;;;5032810;28;20025;-67
2022/12/05 04:12:05;;;;;;;14.88;13.27;;;10.70;37.10;;;;;;5032512;28;20028;-67
2022/12/05 04:14:36;;;;;;;18.50;15.35;;;10.60;28.00;;;;;;5029042;28;20063;-67
2022/12/05 04:17:10;;;;;;;15.27;13.13;;;10.60;29.00;;;;;;5027110;28;20037;-67
2022/12/05 04:22:58;;;;;;;16.80;13.90;;;10.80;38.20;;;;;;5010947;28;20103;-67
2022/12/05 04:25:34;;;;;;;14.40;12.35;;;10.80;22.20;;;;;;5031259;28;20403;-68
2022/12/05 04:28:27;;;;;;;15.27;12.23;;;10.70;21.00;;;;;;5032598;28;20449;-68
2022/12/05 04:31:04;;;;;;;14.25;12.15;;;10.60;24.20;;;;;;5015332;28;20050;-68
2022/12/05 04:33:45;;;;;;;14.88;12.50;;;10.70;23.60;;;;;;5032175;28;20080;-68
2022/12/05 04:36:10;;;;;;;15.13;13.38;;;10.80;20.50;;;;;;5032067;28;20013;-68
2022/12/05 04:38:39;;;;;;;13.45;12.00;;;10.90;18.50;;;;;;5032213;28;20063;-68
2022/12/05 04:41:12;;;;;;;15.32;12.43;;;10.90;19.50;;;;;;5032181;28;20033;-68
2022/12/05 04:43:40;;;;;;;16.20;13.13;;;10.90;19.00;;;;;;5031166;28;20018;-68
2022/12/05 04:50:24;;;;;;;12.50;11.20;;;10.70;20.00;;;;;;5003763;28;20088;-67
2022/12/05 04:52:53;;;;;;;15.55;13.57;;;10.90;17.00;;;;;;5030150;28;20045;-68
2022/12/05 04:55:24;;;;;;;16.10;13.13;;;11.10;16.80;;;;;;5028020;28;20022;-67
2022/12/05 04:58:12;;;;;;;14.15;11.35;;;11.00;16.10;;;;;;5022881;28;20472;-67
2022/12/05 05:01:22;;;;;;;15.93;12.50;;;10.90;16.60;;;;;;5016645;28;20420;-67
2022/12/05 05:03:59;;;;;;;13.02;11.55;;;10.90;16.60;;;;;;5031641;28;20089;-67
2022/12/05 05:06:25;;;;;;;13.15;11.18;;;10.80;13.30;;;;;;5031928;28;20037;-68
2022/12/05 05:08:55;;;;;;;14.32;11.60;;;10.90;16.30;;;;;;5031617;28;20167;-67
2022/12/05 05:11:27;;;;;;;16.45;13.35;;;11.00;14.50;;;;;;5031726;28;20028;-67
2022/12/05 05:13:54;;;;;;;14.85;11.68;;;11.10;13.50;;;;;;5027485;28;20035;-67
2022/12/05 05:16:24;;;;;;;16.67;13.43;;;11.10;14.80;;;;;;5031676;28;20030;-67
2022/12/05 05:18:51;;;;;;;15.82;13.07;;;11.20;14.60;;;;;;5030082;28;20037;-67
2022/12/05 05:21:29;;;;;;;16.02;13.15;;;11.20;14.10;;;;;;5031561;28;20525;-67
2022/12/05 05:23:55;;;;;;;15.52;12.95;;;11.20;13.60;;;;;;5025934;28;20504;-67
2022/12/05 05:26:22;;;;;;;16.13;13.15;;;11.10;13.90;;;;;;5031481;28;20112;-67
2022/12/05 05:28:48;;;;;;;18.80;14.82;;;11.10;13.80;;;;;;5023235;28;20053;-67
2022/12/05 05:31:15;;;;;;;20.17;15.43;;;11.10;14.20;;;;;;5031145;28;20052;-67
2022/12/05 05:33:41;;;;;;;17.02;13.70;;;11.10;13.80;;;;;;5030010;28;20029;-67
2022/12/05 05:36:12;;;;;;;19.70;15.65;;;11.10;11.20;;;;;;5019481;28;20026;-67
2022/12/05 05:38:43;;;;;;;20.33;14.80;;;11.20;13.10;;;;;;5011467;28;20117;-67
2022/12/05 05:41:16;;;;;;;21.73;17.30;;;11.20;12.80;;;;;;5024959;28;20111;-67
2022/12/05 05:43:42;;;;;;;21.52;17.50;;;11.10;99.90;;;;;;5022667;28;20368;-67
2022/12/05 05:46:08;;;;;;;21.00;16.05;;;11.10;99.90;;;;;;5025784;28;20099;-67
2022/12/05 05:48:34;;;;;;;18.45;14.75;;;11.00;99.90;;;;;;5031022;28;20091;-67
2022/12/05 05:51:02;;;;;;;22.55;16.90;;;10.90;32.40;;;;;;5031407;28;20029;-67
2022/12/05 05:53:27;;;;;;;18.30;14.93;;;10.90;14.30;;;;;;5027583;28;20054;-67
2022/12/05 05:55:53;;;;;;;20.48;16.63;;;10.90;14.30;;;;;;5015816;28;20526;-68
2022/12/05 05:58:19;;;;;;;23.58;17.80;;;10.90;14.80;;;;;;5031452;28;20179;-67
2022/12/05 06:00:45;;;;;;;20.67;15.57;;;11.10;14.00;;;;;;5031628;28;20104;-68
2022/12/05 06:03:10;;;;;;;18.92;14.93;;;11.00;13.80;;;;;;5035061;28;20025;-67
2022/12/05 06:05:36;;;;;;;19.45;15.25;;;11.10;13.00;;;;;;5033839;28;20116;-67
2022/12/05 06:08:02;;;;;;;21.52;16.73;;;11.00;13.40;;;;;;5032976;28;20037;-68
2022/12/05 06:10:29;;;;;;;19.30;15.32;;;11.10;12.70;;;;;;5027310;28;20040;-67
2022/12/05 06:13:09;;;;;;;18.83;15.15;;;11.10;11.40;;;;;;5027660;28;20463;-68
2022/12/05 06:15:36;;;;;;;19.63;15.73;;;11.10;8.60;;;;;;5024427;28;20032;-68
2022/12/05 06:18:01;;;;;;;17.65;14.65;;;11.10;10.70;;;;;;5034586;28;20016;-68
2022/12/05 06:20:27;;;;;;;20.60;16.55;;;11.00;9.60;;;;;;5034908;28;20029;-68
2022/12/05 06:22:53;;;;;;;19.90;14.88;;;11.00;99.90;;;;;;5031787;28;20018;-68
2022/12/05 06:25:18;;;;;;;19.30;15.45;;;11.00;99.90;;;;;;5023359;28;20022;-68
2022/12/05 06:27:44;;;;;;;20.25;15.98;;;11.00;99.90;;;;;;5034303;28;20104;-68
2022/12/05 06:30:10;;;;;;;18.15;14.95;;;10.90;99.90;;;;;;5032982;28;20029;-68
2022/12/05 06:32:35;;;;;;;19.88;15.77;;;11.00;99.90;;;;;;5034509;28;20030;-68
2022/12/05 06:35:07;;;;;;;21.83;16.73;;;10.90;99.90;;;;;;5034360;28;20479;-68
2022/12/05 06:37:36;;;;;;;18.42;15.60;;;10.90;99.90;;;;;;5032380;28;20076;-68
2022/12/05 06:40:02;;;;;;;16.50;14.13;;;10.90;99.90;;;;;;5019082;28;20066;-68
2022/12/05 06:42:27;;;;;;;17.00;13.95;;;11.00;99.90;;;;;;5034326;28;20044;-68
2022/12/05 06:44:53;;;;;;;19.95;16.13;;;11.00;26.30;;;;;;5032685;28;20471;-68
2022/12/05 06:47:19;;;;;;;20.83;15.57;;;10.90;13.30;;;;;;5034121;28;20020;-68
2022/12/05 06:49:45;;;;;;;20.50;15.90;;;10.90;12.20;;;;;;5034054;28;20116;-68
2022/12/05 06:52:10;;;;;;;22.52;16.27;;;10.90;12.80;;;;;;5032617;28;20025;-67
2022/12/05 06:54:39;;;;;;;25.65;17.60;;;10.80;12.60;;;;;;5024992;28;20030;-68
2022/12/05 06:57:04;;;;;;;24.83;18.55;;;10.90;13.20;;;;;;5034276;28;20017;-68
2022/12/05 06:59:30;;;;;;;26.27;18.08;;;10.90;12.80;;;;;;5032756;28;20017;-68
2022/12/05 07:01:56;;;;;;;25.50;17.52;;;10.80;13.80;;;;;;5033680;28;20392;-68
2022/12/05 07:04:25;;;;;;;24.33;18.10;;;10.90;12.90;;;;;;5033887;28;20021;-68
2022/12/05 07:06:53;;;;;;;21.55;15.75;;;10.90;12.80;;;;;;5033522;28;20043;-68
2022/12/05 07:09:21;;;;;;;20.65;15.13;;;10.90;11.70;;;;;;5013578;28;20144;-67
2022/12/05 07:11:50;;;;;;;21.77;15.93;;;10.90;11.10;;;;;;5012172;28;20033;-67
2022/12/05 07:14:17;;;;;;;23.30;17.17;;;11.00;11.20;;;;;;5012517;28;20040;-68
2022/12/05 07:16:42;;;;;;;22.55;16.95;;;11.10;10.50;;;;;;5015966;28;20030;-67
2022/12/05 07:19:09;;;;;;;19.83;15.15;;;11.00;9.60;;;;;;5030672;28;20588;-68
2022/12/05 07:21:35;;;;;;;20.08;15.38;;;11.10;8.70;;;;;;5014866;28;20021;-68
2022/12/05 07:24:01;;;;;;;18.75;14.70;;;11.00;8.70;;;;;;5026758;28;20545;-68
2022/12/05 07:26:26;;;;;;;20.30;14.68;;;11.00;8.80;;;;;;5033511;28;20021;-68
2022/12/05 07:28:55;;;;;;;18.27;14.90;;;11.10;8.20;;;;;;5018989;28;20030;-68
2022/12/05 07:31:21;;;;;;;18.10;14.50;;;11.00;7.40;;;;;;5009572;28;20029;-68
2022/12/05 07:33:48;;;;;;;18.77;14.90;;;11.00;8.00;;;;;;5033328;28;20108;-68
2022/12/05 07:36:16;;;;;;;16.90;12.85;;;11.10;7.50;;;;;;5032223;28;20149;-68
2022/12/05 07:38:43;;;;;;;17.88;13.57;;;11.10;7.30;;;;;;5025522;28;20494;-68
2022/12/05 07:41:17;;;;;;;19.75;14.45;;;11.20;7.20;;;;;;5033022;28;20543;-68
2022/12/05 07:43:43;;;;;;;16.08;13.10;;;11.30;7.10;;;;;;5033111;28;20540;-68
2022/12/05 07:46:10;;;;;;;20.10;14.02;;;11.20;6.90;;;;;;5017303;28;20049;-68
2022/12/05 07:48:36;;;;;;;17.75;13.90;;;11.10;7.00;;;;;;5032776;28;20432;-68
2022/12/05 07:51:03;;;;;;;19.67;14.18;;;11.10;7.10;;;;;;5032802;28;20047;-68
2022/12/05 07:53:30;;;;;;;20.85;15.07;;;11.20;6.40;;;;;;5031263;28;20395;-68
2022/12/05 07:56:00;;;;;;;21.02;15.13;;;11.20;6.50;;;;;;5032851;28;20112;-68
2022/12/05 07:58:29;;;;;;;22.08;15.85;;;11.20;6.20;;;;;;5032720;28;20127;-68
2022/12/05 08:00:56;;;;;;;21.40;14.95;;;11.20;5.20;;;;;;5032823;28;20029;-68
2022/12/05 08:03:22;;;;;;;20.15;14.40;;;11.10;6.60;;;;;;5032487;28;20384;-68
2022/12/05 08:05:48;;;;;;;20.20;13.95;;;11.30;6.00;;;;;;5023272;28;20034;-68
2022/12/05 08:08:29;;;;;;;19.85;13.25;;;11.30;5.90;;;;;;5032359;28;20025;-68
2022/12/05 08:10:54;;;;;;;21.58;15.20;;;11.30;3.00;;;;;;5032670;28;20037;-68
2022/12/05 08:13:20;;;;;;;22.00;14.45;;;11.20;5.80;;;;;;5032212;28;20131;-68
2022/12/05 08:15:48;;;;;;;21.73;14.23;;;11.20;5.70;;;;;;5024418;28;20037;-68
2022/12/05 08:18:13;;;;;;;23.45;14.77;;;11.30;5.50;;;;;;5019299;28;20030;-68
2022/12/05 08:20:39;;;;;;;20.58;13.80;;;11.20;5.40;;;;;;5017316;28;20534;-68
2022/12/05 08:23:05;;;;;;;26.20;14.95;;;11.30;5.20;;;;;;5031966;28;20029;-68
2022/12/05 08:25:30;;;;;;;23.80;15.55;;;11.30;5.20;;;;;;5022252;28;20030;-68
2022/12/05 08:27:56;;;;;;;20.67;14.00;;;11.30;4.90;;;;;;5023793;28;20376;-68
2022/12/05 08:30:21;;;;;;;22.85;14.95;;;11.10;5.30;;;;;;5024223;28;20034;-68
2022/12/05 08:32:47;;;;;;;23.92;14.98;;;11.20;5.00;;;;;;5013848;28;20045;-68
2022/12/05 08:35:13;;;;;;;25.83;15.15;;;11.20;5.10;;;;;;5032006;28;20118;-69
2022/12/05 08:37:38;;;;;;;25.20;15.20;;;11.30;4.80;;;;;;5032244;28;20135;-69
2022/12/05 08:46:49;;;;;;;30.10;17.42;;;11.00;3.70;;;;;;4995509;28;20037;-68
2022/12/05 08:49:15;;;;;;;29.63;17.73;;;11.10;6.40;;;;;;5031764;28;20033;-69
2022/12/05 08:51:42;;;;;;;31.98;17.42;;;10.90;99.90;;;;;;5030617;28;20388;-69
2022/12/05 08:54:08;;;;;;;36.17;19.23;;;10.70;99.90;;;;;;5028565;28;20132;-68
2022/12/05 08:56:34;;;;;;;31.65;17.70;;;10.70;99.90;;;;;;5022722;28;20539;-69
2022/12/05 08:59:03;;;;;;;30.23;16.92;;;10.70;99.90;;;;;;5031815;28;20040;-69
2022/12/05 09:01:30;;;;;;;40.83;17.90;;;10.60;99.90;;;;;;5031848;28;20018;-70
2022/12/05 09:03:59;;;;;;;38.10;17.95;;;11.20;99.90;;;;;;5031634;28;20033;-69
2022/12/05 09:06:25;;;;;;;34.75;17.05;;;11.40;99.90;;;;;;5030174;28;20037;-69
2022/12/05 09:08:56;;;;;;;41.97;18.20;;;10.80;99.90;;;;;;5025336;28;20412;-70
2022/12/05 09:11:25;;;;;;;42.67;18.63;;;10.90;99.90;;;;;;5030321;28;20467;-69
2022/12/05 09:13:53;;;;;;;38.55;17.05;;;11.10;99.90;;;;;;5031649;28;20033;-69
2022/12/05 09:16:24;;;;;;;44.03;18.13;;;11.20;99.90;;;;;;5031263;28;20014;-69
2022/12/05 09:18:51;;;;;;;29.20;15.02;;;11.00;99.90;;;;;;5022548;28;20079;-70
2022/12/05 09:21:19;;;;;;;29.95;17.80;;;10.90;99.90;;;;;;5020317;28;20034;-69
2022/12/05 09:23:44;;;;;;;53.17;20.13;;;10.80;99.90;;;;;;5031431;28;20025;-69
2022/12/05 09:26:13;;;;;;;38.47;19.48;;;10.80;99.90;;;;;;5031566;28;20033;-70
2022/12/05 09:28:39;;;;;;;39.78;18.05;;;10.70;99.90;;;;;;5016705;28;20221;-70
2022/12/05 09:31:10;;;;;;;48.55;23.15;;;10.70;99.90;;;;;;5031160;28;20033;-70
2022/12/05 09:33:36;;;;;;;50.20;24.48;;;10.90;99.90;;;;;;5031826;28;20025;-70
2022/12/05 09:36:10;;;;;;;43.15;20.42;;;11.10;99.90;;;;;;5030985;28;20033;-70
2022/12/05 09:38:36;;;;;;;48.17;20.95;;;11.10;99.90;;;;;;5025395;28;20022;-70
2022/12/05 09:44:41;;;;;;;45.03;20.38;;;11.00;99.90;;;;;;5035361;28;20041;-70
2022/12/05 09:47:09;;;;;;;48.78;20.77;;;11.00;99.90;;;;;;5035411;28;20099;-70
2022/12/05 09:49:42;;;;;;;41.53;19.35;;;10.90;99.90;;;;;;5034975;28;20108;-70
2022/12/05 09:52:19;;;;;;;44.72;20.77;;;10.90;99.90;;;;;;5033761;28;20021;-69
2022/12/05 09:54:44;;;;;;;42.67;19.05;;;10.90;99.90;;;;;;5032688;28;20033;-70
2022/12/05 09:57:11;;;;;;;34.80;17.33;;;10.90;99.90;;;;;;5035610;28;20033;-70
2022/12/05 09:59:36;;;;;;;39.95;19.25;;;10.60;99.90;;;;;;5035061;28;20056;-70
2022/12/05 10:02:10;;;;;;;39.63;19.70;;;10.80;99.90;;;;;;5035150;28;20096;-70
2022/12/05 10:05:00;;;;;;;41.97;19.40;;;10.70;99.90;;;;;;5033599;28;20033;-70
2022/12/05 10:07:55;;;;;;;41.47;19.13;;;10.90;99.90;;;;;;5024365;28;20088;-70
2022/12/05 10:10:54;;;;;;;42.53;19.73;;;10.60;99.90;;;;;;5016995;28;20041;-70
2022/12/05 10:13:41;;;;;;;44.83;20.88;;;10.80;99.90;;;;;;5034785;28;20026;-70
2022/12/05 10:16:27;;;;;;;43.67;19.38;;;11.00;99.90;;;;;;5035054;28;20112;-70
2022/12/05 10:18:59;;;;;;;41.97;19.45;;;10.80;99.90;;;;;;5006428;28;20419;-70
2022/12/05 10:21:52;;;;;;;42.17;19.30;;;10.80;99.90;;;;;;5015320;28;20056;-69
2022/12/05 10:24:29;;;;;;;42.40;19.20;;;10.60;99.90;;;;;;5028566;28;20026;-65
2022/12/05 10:27:03;;;;;;;33.28;17.70;;;10.70;99.90;;;;;;5022834;28;20018;-65
2022/12/05 10:29:32;;;;;;;41.72;19.80;;;10.80;99.90;;;;;;5006348;28;20048;-65
2022/12/05 10:32:11;;;;;;;35.47;18.45;;;10.90;99.90;;;;;;5027908;28;20022;-65
2022/12/05 10:34:40;;;;;;;39.47;18.38;;;11.00;99.90;;;;;;5015570;28;20080;-65
2022/12/05 10:37:21;;;;;;;32.72;17.67;;;11.00;99.90;;;;;;5015491;28;20029;-65
2022/12/05 10:39:49;;;;;;;38.10;18.02;;;10.80;99.90;;;;;;5018288;28;20034;-64
2022/12/05 10:42:27;;;;;;;39.53;18.95;;;10.80;99.90;;;;;;5031913;28;20021;-64
2022/12/05 10:45:01;;;;;;;32.35;16.33;;;10.90;99.90;;;;;;5011029;28;20404;-64
2022/12/05 10:47:28;;;;;;;37.77;17.83;;;10.70;99.90;;;;;;5009376;28;20030;-64
2022/12/05 10:49:57;;;;;;;31.02;16.70;;;10.60;99.90;;;;;;5014552;28;20201;-65
2022/12/05 10:52:23;;;;;;;40.65;18.33;;;10.80;99.90;;;;;;5016009;28;20060;-64
2022/12/05 10:54:56;;;;;;;31.52;17.05;;;11.00;99.90;;;;;;5017274;28;20034;-62
2022/12/05 10:57:28;;;;;;;34.60;17.38;;;11.10;99.90;;;;;;5011106;28;20164;-62
2022/12/05 10:59:55;;;;;;;32.35;16.17;;;11.10;99.90;;;;;;5013492;28;20022;-62
2022/12/05 11:02:30;;;;;;;29.10;15.60;;;11.00;99.90;;;;;;5020695;28;20018;-62
2022/12/05 11:05:02;;;;;;;32.75;17.45;;;11.10;99.90;;;;;;5018529;28;20053;-61
2022/12/05 11:07:32;;;;;;;34.10;16.92;;;10.90;99.90;;;;;;5031097;28;20021;-61
2022/12/05 11:10:00;;;;;;;28.13;16.38;;;11.10;99.90;;;;;;5033809;28;20120;-61
2022/12/05 11:12:37;;;;;;;27.65;15.95;;;11.10;99.90;;;;;;5017938;28;20022;-63
2022/12/05 11:15:15;;;;;;;29.33;17.65;;;10.90;99.90;;;;;;5015542;28;20080;-63
2022/12/05 11:17:41;;;;;;;32.08;18.08;;;11.10;99.90;;;;;;5031031;28;20017;-63
2022/12/05 11:20:19;;;;;;;32.53;18.55;;;11.10;99.90;;;;;;5020980;28;20033;-63
2022/12/05 11:22:53;;;;;;;31.05;16.40;;;11.20;99.90;;;;;;4999583;28;20484;-63
2022/12/05 11:25:32;;;;;;;27.80;15.98;;;11.10;99.90;;;;;;5015660;28;20030;-63
2022/12/05 11:28:01;;;;;;;28.50;15.70;;;11.10;99.90;;;;;;5008046;28;20033;-63
2022/12/05 11:30:28;;;;;;;27.95;15.52;;;11.20;99.90;;;;;;5031465;28;20442;-63
2022/12/05 11:33:22;;;;;;;21.92;13.57;;;11.20;99.90;;;;;;5014126;28;20426;-63
2022/12/05 11:35:51;;;;;;;25.47;15.53;;;11.10;99.90;;;;;;5010810;28;20427;-62
2022/12/05 11:38:20;;;;;;;25.48;14.13;;;11.00;99.90;;;;;;5012936;28;20272;-63
2022/12/05 11:40:53;;;;;;;24.05;15.07;;;11.30;99.90;;;;;;5012665;28;20030;-63
2022/12/05 11:43:49;;;;;;;32.55;17.70;;;11.30;99.90;;;;;;5013327;28;20026;-62
2022/12/05 11:46:40;;;;;;;24.80;15.75;;;11.30;99.90;;;;;;5046562;28;20029;-63
2022/12/05 11:49:39;;;;;;;29.50;14.57;;;11.30;99.90;;;;;;5033496;28;20036;-62
2022/12/05 11:52:28;;;;;;;28.08;16.00;;;11.40;99.90;;;;;;5018957;28;20061;-62
2022/12/05 11:55:13;;;;;;;24.52;14.88;;;11.40;99.90;;;;;;5018847;28;20045;-62
2022/12/05 11:58:06;;;;;;;;;;;11.40;99.90;;;;;;5034015;28;20053;-62
2022/12/05 12:00:48;;;;;;;23.10;13.80;;;11.40;99.90;;;;;;4992140;28;19905;-62
2022/12/05 12:03:22;;;;;;;19.40;11.63;;;11.40;99.90;;;;;;5000745;28;20021;-62
2022/12/05 12:06:27;;;;;;;21.58;13.27;;;11.30;99.90;;;;;;5032738;28;20104;-61
2022/12/05 12:09:04;;;;;;;17.20;11.40;;;11.50;99.90;;;;;;5003382;28;20054;-62
2022/12/05 12:11:41;;;;;;;20.80;12.68;;;11.50;99.90;;;;;;5013742;28;20423;-62
2022/12/05 12:14:34;;;;;;;19.02;12.48;;;11.50;99.90;;;;;;5033052;28;20025;-62
2022/12/05 12:17:26;;;;;;;26.60;15.13;;;11.50;99.90;;;;;;5032737;28;20022;-61
2022/12/05 12:20:01;;;;;;;23.50;14.10;;;11.50;99.90;;;;;;5032802;28;20021;-62
2022/12/05 12:22:50;;;;;;;21.92;14.00;;;11.60;99.90;;;;;;5028815;28;20544;-61
2022/12/05 12:25:26;;;;;;;22.75;14.82;;;11.40;99.90;;;;;;5020126;28;20062;-62
2022/12/05 12:28:10;;;;;;;20.65;13.52;;;11.40;99.90;;;;;;5016187;28;20084;-62
2022/12/05 12:30:50;;;;;;;22.83;14.95;;;11.30;99.90;;;;;;5014197;28;20033;-62
2022/12/05 12:33:33;;;;;;;21.85;13.70;;;11.50;99.90;;;;;;5024552;28;20026;-62
2022/12/05 12:36:26;;;;;;;23.38;15.07;;;11.40;99.90;;;;;;5014438;28;20384;-62
2022/12/05 12:39:37;;;;;;;22.42;14.70;;;11.50;99.90;;;;;;4999127;28;20046;-62
2022/12/05 12:42:26;;;;;;;21.08;14.18;;;11.50;99.90;;;;;;5013136;28;20128;-62
2022/12/05 12:44:55;;;;;;;27.85;16.70;;;11.60;99.90;;;;;;5009473;28;20101;-62
2022/12/05 12:47:20;;;;;;;19.52;13.18;;;11.70;99.90;;;;;;4999833;28;20038;-63
2022/12/05 12:49:55;;;;;;;23.27;15.07;;;11.80;99.90;;;;;;5013642;28;20162;-62
2022/12/05 12:52:23;;;;;;;23.50;15.73;;;11.80;99.90;;;;;;5015115;28;20049;-63
2022/12/05 12:55:24;;;;;;;23.80;14.98;;;11.80;99.90;;;;;;5018972;28;20022;-63
2022/12/05 13:01:49;;;;;;;24.92;15.27;;;11.60;99.90;;;;;;5004700;28;20068;-63
2022/12/05 13:04:22;;;;;;;23.80;14.20;;;11.70;99.90;;;;;;5006619;28;20076;-63
2022/12/05 13:07:04;;;;;;;20.88;14.82;;;11.70;99.90;;;;;;5014750;28;20046;-64
2022/12/05 13:09:42;;;;;;;20.60;14.15;;;11.70;99.90;;;;;;5020579;28;20030;-63
2022/12/05 13:12:12;;;;;;;23.55;14.85;;;11.80;99.90;;;;;;5026992;28;20037;-63
2022/12/05 13:14:48;;;;;;;22.80;15.10;;;11.80;99.90;;;;;;5019277;28;20102;-63
2022/12/05 13:17:19;;;;;;;24.13;15.43;;;11.80;99.90;;;;;;5014479;28;21660;-63
2022/12/05 13:19:48;;;;;;;25.13;15.93;;;11.70;99.90;;;;;;5020230;28;20096;-63
2022/12/05 13:22:17;;;;;;;23.83;15.48;;;11.80;99.90;;;;;;5021472;28;20190;-63